createdAt,value
2018-12-07T00:00:57.506Z,34.76
2018-12-07T00:02:50.452Z,34.76
2018-12-07T00:03:50.482Z,34.66
2018-12-07T00:05:43.435Z,34.76
2018-12-07T00:06:43.460Z,34.86
2018-12-07T00:08:37.274Z,34.86
2018-12-07T00:09:36.432Z,34.86
2018-12-07T00:11:29.380Z,34.76
2018-12-07T00:12:29.406Z,34.94
2018-12-07T00:14:24.532Z,34.86
2018-12-07T00:15:24.549Z,34.86
2018-12-07T00:17:17.503Z,34.95
2018-12-07T00:18:17.525Z,34.95
2018-12-07T00:20:10.475Z,35.22
2018-12-07T00:21:10.501Z,34.94
2018-12-07T00:23:03.441Z,34.76
2018-12-07T00:24:03.471Z,34.86
2018-12-07T00:25:56.428Z,35.05
2018-12-07T00:26:56.446Z,35.05
2018-12-07T00:28:49.394Z,34.95
2018-12-07T00:29:49.421Z,35.22
2018-12-07T00:31:42.377Z,35.13
2018-12-07T00:32:42.399Z,35.14
2018-12-07T00:34:35.360Z,34.95
2018-12-07T00:35:35.365Z,34.86
2018-12-07T00:37:28.311Z,35.05
2018-12-07T00:38:28.343Z,35.03
2018-12-07T00:40:21.294Z,35.14
2018-12-07T00:41:21.314Z,34.94
2018-12-07T00:43:14.265Z,35.05
2018-12-07T00:44:14.295Z,35.13
2018-12-07T00:46:07.251Z,35.05
2018-12-07T00:47:07.268Z,35.03
2018-12-07T00:49:00.218Z,35.03
2018-12-07T00:50:00.241Z,35.03
2018-12-07T00:51:53.198Z,35.24
2018-12-07T00:52:53.219Z,34.95
2018-12-07T00:54:46.189Z,35.03
2018-12-07T00:55:46.193Z,35.03
2018-12-07T00:57:41.667Z,35.13
2018-12-07T00:58:39.174Z,34.86
2018-12-07T01:00:32.120Z,35.13
2018-12-07T01:01:32.139Z,35.13
2018-12-07T01:03:25.085Z,35.24
2018-12-07T01:04:25.112Z,35.13
2018-12-07T01:06:18.069Z,34.94
2018-12-07T01:07:18.089Z,35.13
2018-12-07T01:09:11.029Z,35.03
2018-12-07T01:10:11.059Z,35.14
2018-12-07T01:12:04.015Z,34.94
2018-12-07T01:13:04.035Z,35.03
2018-12-07T01:14:56.984Z,35.13
2018-12-07T01:15:57.014Z,35.32
2018-12-07T01:17:49.968Z,35.32
2018-12-07T01:18:49.990Z,35.13
2018-12-07T01:20:42.941Z,35.03
2018-12-07T01:21:42.961Z,35.13
2018-12-07T01:23:35.911Z,35.22
2018-12-07T01:24:35.939Z,35.13
2018-12-07T01:26:28.890Z,35.13
2018-12-07T01:27:28.913Z,35.13
2018-12-07T01:29:21.855Z,35.13
2018-12-07T01:30:21.887Z,35.22
2018-12-07T01:32:14.839Z,34.94
2018-12-07T01:33:14.865Z,34.94
2018-12-07T01:35:07.816Z,35.32
2018-12-07T01:36:07.840Z,35.22
2018-12-07T01:38:00.789Z,35.22
2018-12-07T01:39:00.808Z,35.13
2018-12-07T01:40:53.767Z,35.42
2018-12-07T01:41:53.787Z,35.13
2018-12-07T01:43:46.735Z,35.13
2018-12-07T01:44:46.763Z,35.22
2018-12-07T01:46:39.718Z,35.05
2018-12-07T01:47:39.737Z,35.22
2018-12-07T01:49:32.683Z,35.32
2018-12-07T01:50:32.711Z,35.22
2018-12-07T01:52:25.688Z,35.13
2018-12-07T01:53:25.687Z,35.22
2018-12-07T01:55:18.658Z,35.32
2018-12-07T01:56:18.660Z,35.22
2018-12-07T01:58:11.613Z,35.13
2018-12-07T01:59:11.633Z,35.13
2018-12-07T02:01:04.587Z,35.22
2018-12-07T02:02:04.603Z,35.32
2018-12-07T02:03:57.546Z,35.42
2018-12-07T02:04:57.575Z,35.03
2018-12-07T02:06:50.526Z,35.42
2018-12-07T02:07:50.552Z,35.22
2018-12-07T02:09:43.495Z,35.22
2018-12-07T02:10:43.525Z,35.22
2018-12-07T02:12:36.486Z,35.03
2018-12-07T02:13:36.504Z,35.22
2018-12-07T02:15:29.448Z,35.03
2018-12-07T02:16:29.478Z,35.03
2018-12-07T02:18:22.431Z,35.22
2018-12-07T02:19:22.452Z,35.32
2018-12-07T02:21:15.392Z,35.22
2018-12-07T02:22:15.422Z,35.13
2018-12-07T02:24:08.377Z,35.13
2018-12-07T02:25:08.396Z,35.13
2018-12-07T02:27:01.841Z,35.03
2018-12-07T02:28:01.864Z,35.13
2018-12-07T02:29:54.806Z,35.32
2018-12-07T02:30:54.837Z,35.22
2018-12-07T02:32:47.794Z,35.32
2018-12-07T02:33:47.812Z,35.13
2018-12-07T02:35:40.755Z,35.03
2018-12-07T02:36:40.786Z,35.22
2018-12-07T02:38:33.742Z,35.13
2018-12-07T02:39:33.761Z,35.32
2018-12-07T02:41:26.702Z,35.52
2018-12-07T02:42:26.734Z,35.32
2018-12-07T02:44:19.692Z,35.13
2018-12-07T02:45:19.707Z,35.32
2018-12-07T02:47:12.661Z,35.32
2018-12-07T02:48:12.680Z,35.42
2018-12-07T02:50:05.630Z,35.42
2018-12-07T02:51:05.658Z,35.42
2018-12-07T02:52:58.606Z,35.32
2018-12-07T02:53:58.628Z,35.32
2018-12-07T02:55:51.577Z,35.22
2018-12-07T02:56:51.603Z,35.22
2018-12-07T02:58:44.558Z,35.32
2018-12-07T02:59:44.578Z,35.13
2018-12-07T03:01:37.531Z,35.42
2018-12-07T03:02:37.559Z,35.42
2018-12-07T03:04:30.513Z,35.61
2018-12-07T03:05:30.534Z,35.52
2018-12-07T03:07:23.506Z,35.32
2018-12-07T03:08:23.505Z,35.42
2018-12-07T03:10:16.459Z,35.42
2018-12-07T03:11:16.480Z,35.03
2018-12-07T03:13:09.429Z,35.71
2018-12-07T03:14:09.454Z,35.22
2018-12-07T03:16:02.397Z,35.22
2018-12-07T03:17:02.429Z,35.32
2018-12-07T03:18:55.377Z,35.42
2018-12-07T03:19:55.401Z,35.32
2018-12-07T03:21:48.344Z,35.13
2018-12-07T03:22:48.373Z,35.22
2018-12-07T03:24:41.323Z,35.42
2018-12-07T03:25:41.344Z,35.32
2018-12-07T03:27:34.292Z,35.42
2018-12-07T03:28:34.323Z,35.22
2018-12-07T03:30:27.288Z,35.22
2018-12-07T03:31:27.298Z,35.03
2018-12-07T03:33:20.267Z,35.52
2018-12-07T03:34:20.265Z,35.22
2018-12-07T03:36:13.214Z,35.22
2018-12-07T03:37:13.243Z,35.13
2018-12-07T03:39:06.198Z,35.42
2018-12-07T03:40:06.224Z,35.52
2018-12-07T03:41:59.162Z,35.32
2018-12-07T03:42:59.192Z,35.42
2018-12-07T03:44:52.146Z,35.61
2018-12-07T03:45:52.169Z,35.42
2018-12-07T03:47:45.110Z,35.32
2018-12-07T03:48:45.135Z,35.42
2018-12-07T03:50:38.088Z,35.13
2018-12-07T03:51:38.112Z,35.52
2018-12-07T03:53:31.065Z,35.32
2018-12-07T03:54:31.081Z,35.52
2018-12-07T03:56:24.038Z,35.52
2018-12-07T03:57:24.074Z,35.32
2018-12-07T03:59:17.013Z,35.61
2018-12-07T04:00:17.039Z,35.42
2018-12-07T04:02:09.988Z,35.13
2018-12-07T04:03:10.013Z,35.42
2018-12-07T04:05:02.998Z,35.42
2018-12-07T04:06:02.985Z,35.71
2018-12-07T04:07:55.929Z,35.71
2018-12-07T04:08:55.956Z,35.42
2018-12-07T04:10:48.910Z,35.61
2018-12-07T04:11:48.930Z,35.71
2018-12-07T04:13:41.885Z,35.22
2018-12-07T04:14:41.904Z,35.22
2018-12-07T04:16:34.847Z,35.61
2018-12-07T04:17:34.880Z,35.32
2018-12-07T04:19:27.835Z,35.42
2018-12-07T04:20:27.857Z,35.42
2018-12-07T04:22:20.794Z,35.22
2018-12-07T04:23:20.839Z,35.42
2018-12-07T04:25:13.776Z,35.22
2018-12-07T04:26:13.800Z,35.42
2018-12-07T04:28:06.740Z,35.42
2018-12-07T04:29:06.773Z,35.32
2018-12-07T04:30:59.720Z,35.42
2018-12-07T04:31:59.746Z,35.22
2018-12-07T04:33:52.695Z,35.22
2018-12-07T04:34:52.716Z,35.42
2018-12-07T04:36:45.665Z,35.42
2018-12-07T04:37:45.697Z,35.42
2018-12-07T04:39:38.649Z,35.13
2018-12-07T04:40:38.669Z,35.03
2018-12-07T04:42:31.613Z,35.42
2018-12-07T04:43:31.641Z,35.42
2018-12-07T04:45:24.594Z,35.22
2018-12-07T04:46:24.624Z,35.52
2018-12-07T04:48:17.558Z,35.32
2018-12-07T04:49:17.590Z,35.32
2018-12-07T04:51:10.541Z,35.80
2018-12-07T04:52:10.563Z,35.42
2018-12-07T04:54:03.514Z,35.52
2018-12-07T04:55:03.543Z,35.32
2018-12-07T04:56:56.482Z,35.42
2018-12-07T04:57:56.512Z,35.32
2018-12-07T04:59:49.469Z,35.22
2018-12-07T05:00:49.487Z,34.94
2018-12-07T05:02:42.437Z,35.52
2018-12-07T05:03:42.467Z,36.00
2018-12-07T05:05:35.415Z,36.57
2018-12-07T05:06:35.438Z,36.19
2018-12-07T05:08:28.384Z,36.87
2018-12-07T05:09:28.416Z,36.57
2018-12-07T05:11:21.364Z,36.67
2018-12-07T05:12:21.385Z,36.57
2018-12-07T05:14:14.329Z,36.57
2018-12-07T05:15:14.360Z,36.87
2018-12-07T05:17:07.315Z,36.77
2018-12-07T05:18:07.370Z,36.67
2018-12-07T05:20:00.292Z,36.87
2018-12-07T05:21:00.316Z,36.87
2018-12-07T05:22:53.263Z,37.06
2018-12-07T05:23:53.323Z,37.15
2018-12-07T05:25:46.245Z,36.96
2018-12-07T05:26:46.268Z,37.15
2018-12-07T05:28:39.214Z,36.77
2018-12-07T05:29:39.247Z,36.96
2018-12-07T05:31:32.198Z,36.87
2018-12-07T05:32:32.217Z,36.87
2018-12-07T05:34:25.164Z,37.15
2018-12-07T05:35:25.197Z,37.06
2018-12-07T05:37:18.160Z,37.91
2018-12-07T05:38:18.166Z,37.62
2018-12-07T05:40:11.169Z,37.83
2018-12-07T05:41:11.185Z,37.83
2018-12-07T05:43:04.131Z,37.62
2018-12-07T05:44:04.165Z,37.71
2018-12-07T05:45:57.117Z,37.83
2018-12-07T05:46:57.139Z,38.02
2018-12-07T05:48:50.099Z,37.71
2018-12-07T05:49:50.111Z,37.52
2018-12-07T05:51:43.069Z,37.81
2018-12-07T05:52:43.092Z,37.71
2018-12-07T05:54:36.034Z,37.63
2018-12-07T05:55:36.062Z,37.91
2018-12-07T05:57:29.030Z,37.73
2018-12-07T05:58:29.036Z,37.73
2018-12-07T06:00:21.988Z,37.73
2018-12-07T06:01:22.009Z,37.62
2018-12-07T06:03:14.955Z,36.87
2018-12-07T06:04:14.983Z,36.57
2018-12-07T06:06:07.934Z,36.19
2018-12-07T06:07:07.957Z,36.19
2018-12-07T06:09:00.906Z,35.90
2018-12-07T06:10:00.935Z,36.19
2018-12-07T06:11:55.081Z,36.09
2018-12-07T06:12:53.903Z,36.38
2018-12-07T06:14:46.850Z,36.77
2018-12-07T06:15:46.879Z,36.57
2018-12-07T06:17:39.830Z,36.38
2018-12-07T06:18:39.856Z,36.29
2018-12-07T06:20:32.797Z,36.00
2018-12-07T06:21:32.827Z,36.09
2018-12-07T06:23:25.774Z,36.19
2018-12-07T06:24:25.797Z,36.48
2018-12-07T06:26:18.756Z,36.00
2018-12-07T06:27:18.772Z,36.48
2018-12-07T06:29:11.715Z,36.19
2018-12-07T06:30:11.745Z,36.19
2018-12-07T06:32:04.697Z,36.19
2018-12-07T06:33:04.716Z,36.00
2018-12-07T06:34:57.666Z,35.82
2018-12-07T06:35:57.694Z,35.80
2018-12-07T06:37:50.647Z,35.80
2018-12-07T06:38:50.665Z,35.52
2018-12-07T06:40:43.622Z,35.72
2018-12-07T06:41:43.644Z,35.72
2018-12-07T06:43:36.606Z,35.53
2018-12-07T06:44:36.624Z,36.11
2018-12-07T06:46:29.574Z,36.50
2018-12-07T06:47:29.596Z,36.11
2018-12-07T06:49:22.541Z,35.44
2018-12-07T06:50:22.574Z,35.44
2018-12-07T06:52:15.530Z,35.14
2018-12-07T06:53:15.551Z,35.72
2018-12-07T06:55:08.492Z,35.92
2018-12-07T06:56:08.524Z,36.87
2018-12-07T06:58:01.479Z,36.57
2018-12-07T06:59:01.503Z,36.09
2018-12-07T07:00:54.451Z,36.30
2018-12-07T07:01:54.482Z,36.11
2018-12-07T07:03:47.433Z,36.50
2018-12-07T07:04:47.454Z,35.82
2018-12-07T07:06:40.410Z,36.11
2018-12-07T07:07:40.435Z,36.21
2018-12-07T07:09:33.377Z,36.21
2018-12-07T07:10:33.408Z,36.11
2018-12-07T07:12:26.361Z,36.30
2018-12-07T07:13:26.380Z,36.21
2018-12-07T07:15:19.324Z,35.92
2018-12-07T07:16:23.042Z,36.21
2018-12-07T07:18:12.330Z,36.01
2018-12-07T07:19:12.329Z,36.21
2018-12-07T07:21:05.273Z,35.72
2018-12-07T07:22:05.304Z,35.92
2018-12-07T07:23:58.259Z,35.92
2018-12-07T07:24:58.281Z,35.92
2018-12-07T07:26:51.237Z,38.39
2018-12-07T07:27:51.261Z,39.53
2018-12-07T07:29:44.252Z,39.91
2018-12-07T07:30:44.238Z,39.72
2018-12-07T07:32:37.692Z,40.59
2018-12-07T07:33:37.730Z,41.34
2018-12-07T07:35:30.659Z,39.54
2018-12-07T07:36:30.693Z,38.49
2018-12-07T07:38:23.643Z,37.83
2018-12-07T07:39:23.662Z,37.15
2018-12-07T07:41:16.615Z,36.29
2018-12-07T07:42:16.642Z,36.48
2018-12-07T07:44:09.595Z,36.21
2018-12-07T07:45:09.615Z,36.69
2018-12-07T07:47:02.568Z,36.40
2018-12-07T07:48:02.593Z,36.01
2018-12-07T07:49:55.539Z,36.21
2018-12-07T07:50:55.566Z,36.50
2018-12-07T07:52:48.523Z,36.01
2018-12-07T07:53:48.545Z,35.92
2018-12-07T07:55:41.492Z,36.50
2018-12-07T07:56:41.522Z,36.40
2018-12-07T07:58:34.489Z,36.30
2018-12-07T07:59:34.500Z,36.21
2018-12-07T08:01:27.449Z,36.40
2018-12-07T08:02:29.189Z,36.01
2018-12-07T08:04:20.434Z,36.01
2018-12-07T08:05:20.451Z,35.92
2018-12-07T08:07:13.411Z,35.92
2018-12-07T08:08:13.431Z,35.92
2018-12-07T08:10:06.375Z,36.01
2018-12-07T08:11:06.405Z,36.01
2018-12-07T08:12:59.356Z,36.01
2018-12-07T08:13:59.381Z,36.11
2018-12-07T08:15:52.327Z,36.11
2018-12-07T08:16:52.356Z,36.21
2018-12-07T08:18:45.314Z,36.01
2018-12-07T08:19:45.340Z,36.50
2018-12-07T08:21:38.287Z,36.21
2018-12-07T08:22:38.316Z,36.11
2018-12-07T08:24:31.268Z,35.92
2018-12-07T08:25:31.291Z,36.30
2018-12-07T08:27:24.259Z,36.11
2018-12-07T08:28:24.265Z,36.30
2018-12-07T08:30:17.213Z,36.11
2018-12-07T08:31:17.240Z,36.21
2018-12-07T08:33:10.194Z,36.11
2018-12-07T08:34:10.219Z,36.21
2018-12-07T08:36:03.163Z,36.01
2018-12-07T08:37:03.193Z,36.01
2018-12-07T08:38:56.144Z,36.21
2018-12-07T08:39:56.167Z,36.21
2018-12-07T08:41:49.116Z,36.11
2018-12-07T08:42:49.141Z,35.82
2018-12-07T08:44:42.098Z,35.82
2018-12-07T08:45:42.118Z,35.92
2018-12-07T08:47:35.066Z,36.11
2018-12-07T08:48:35.094Z,35.92
2018-12-07T08:50:28.050Z,35.63
2018-12-07T08:51:28.070Z,35.72
2018-12-07T08:53:21.032Z,35.82
2018-12-07T08:54:21.044Z,35.82
2018-12-07T08:56:13.993Z,35.82
2018-12-07T08:57:14.020Z,35.82
2018-12-07T08:59:06.977Z,35.63
2018-12-07T09:00:06.997Z,35.63
2018-12-07T09:01:59.944Z,35.63
2018-12-07T09:02:59.974Z,35.53
2018-12-07T09:04:52.927Z,35.63
2018-12-07T09:05:52.949Z,35.44
2018-12-07T09:07:45.896Z,35.82
2018-12-07T09:08:45.927Z,35.53
2018-12-07T09:10:38.881Z,35.72
2018-12-07T09:11:38.900Z,35.53
2018-12-07T09:13:31.853Z,35.53
2018-12-07T09:14:31.873Z,35.53
2018-12-07T09:16:24.820Z,35.82
2018-12-07T09:17:24.852Z,35.53
2018-12-07T09:19:17.801Z,35.72
2018-12-07T09:20:17.826Z,35.44
2018-12-07T09:22:10.770Z,35.63
2018-12-07T09:23:10.801Z,35.44
2018-12-07T09:25:03.755Z,35.34
2018-12-07T09:26:03.774Z,35.72
2018-12-07T09:27:56.724Z,35.63
2018-12-07T09:28:56.753Z,35.44
2018-12-07T09:30:49.705Z,35.14
2018-12-07T09:31:49.729Z,35.44
2018-12-07T09:33:42.674Z,35.44
2018-12-07T09:34:42.704Z,35.14
2018-12-07T09:36:35.656Z,35.14
2018-12-07T09:37:35.679Z,35.44
2018-12-07T09:39:28.634Z,35.34
2018-12-07T09:40:28.652Z,35.14
2018-12-07T09:42:21.598Z,35.24
2018-12-07T09:43:21.628Z,35.34
2018-12-07T09:45:14.586Z,35.34
2018-12-07T09:46:14.603Z,35.44
2018-12-07T09:48:07.552Z,35.05
2018-12-07T09:49:07.577Z,34.95
2018-12-07T09:51:00.532Z,35.55
2018-12-07T09:52:00.554Z,35.14
2018-12-07T09:53:53.494Z,35.26
2018-12-07T09:54:53.522Z,35.05
2018-12-07T09:56:46.481Z,35.26
2018-12-07T09:57:46.502Z,35.24
2018-12-07T09:59:39.472Z,35.16
2018-12-07T10:00:39.481Z,34.95
2018-12-07T10:02:32.421Z,35.34
2018-12-07T10:03:32.449Z,35.06
2018-12-07T10:05:25.405Z,35.24
2018-12-07T10:06:25.425Z,35.16
2018-12-07T10:08:18.370Z,35.26
2018-12-07T10:09:18.402Z,35.14
2018-12-07T10:11:11.357Z,35.24
2018-12-07T10:12:11.378Z,35.14
2018-12-07T10:14:04.323Z,35.06
2018-12-07T10:15:04.353Z,35.16
2018-12-07T10:16:57.307Z,35.14
2018-12-07T10:17:57.324Z,35.14
2018-12-07T10:19:50.271Z,34.95
2018-12-07T10:20:50.301Z,34.97
2018-12-07T10:22:43.259Z,35.05
2018-12-07T10:23:43.284Z,35.24
2018-12-07T10:25:36.234Z,35.05
2018-12-07T10:26:36.256Z,35.24
2018-12-07T10:28:29.202Z,35.05
2018-12-07T10:29:29.234Z,35.36
2018-12-07T10:31:22.185Z,34.95
2018-12-07T10:32:22.208Z,35.06
2018-12-07T10:34:15.153Z,35.26
2018-12-07T10:35:15.186Z,35.14
2018-12-07T10:37:08.138Z,35.14
2018-12-07T10:38:08.159Z,34.95
2018-12-07T10:40:01.101Z,36.96
2018-12-07T10:41:01.131Z,36.30
2018-12-07T10:42:54.088Z,36.30
2018-12-07T10:43:54.110Z,36.01
2018-12-07T10:45:47.060Z,35.63
2018-12-07T10:46:47.084Z,35.92
2018-12-07T10:48:40.027Z,35.72
2018-12-07T10:49:40.059Z,35.45
2018-12-07T10:51:33.012Z,35.36
2018-12-07T10:52:33.033Z,35.36
2018-12-07T10:54:25.978Z,35.26
2018-12-07T10:55:26.009Z,35.26
2018-12-07T10:57:18.961Z,35.06
2018-12-07T10:58:18.984Z,34.87
2018-12-07T11:00:11.930Z,35.26
2018-12-07T11:01:11.960Z,35.16
2018-12-07T11:03:04.915Z,35.06
2018-12-07T11:04:04.935Z,35.16
2018-12-07T11:05:57.884Z,35.36
2018-12-07T11:06:57.905Z,35.06
2018-12-07T11:08:50.869Z,35.26
2018-12-07T11:09:50.893Z,35.06
2018-12-07T11:11:44.334Z,35.36
2018-12-07T11:12:44.356Z,35.16
2018-12-07T11:14:37.303Z,35.16
2018-12-07T11:15:37.336Z,35.16
2018-12-07T11:17:30.283Z,35.16
2018-12-07T11:18:30.306Z,35.45
2018-12-07T11:20:23.253Z,35.16
2018-12-07T11:21:23.284Z,35.45
2018-12-07T11:23:16.237Z,35.45
2018-12-07T11:24:16.261Z,35.34
2018-12-07T11:26:09.212Z,35.55
2018-12-07T11:27:09.237Z,35.45
2018-12-07T11:29:02.184Z,35.16
2018-12-07T11:30:02.214Z,35.45
2018-12-07T11:31:55.171Z,35.16
2018-12-07T11:32:55.191Z,35.64
2018-12-07T11:34:48.142Z,35.06
2018-12-07T11:35:48.171Z,35.36
2018-12-07T11:37:41.121Z,35.45
2018-12-07T11:38:41.147Z,35.14
2018-12-07T11:40:34.096Z,35.26
2018-12-07T11:41:34.124Z,35.36
2018-12-07T11:43:27.088Z,35.26
2018-12-07T11:44:27.105Z,35.16
2018-12-07T11:46:20.047Z,35.36
2018-12-07T11:47:20.079Z,35.16
2018-12-07T11:49:13.068Z,35.45
2018-12-07T11:50:13.064Z,35.16
2018-12-07T11:52:06.010Z,35.16
2018-12-07T11:53:06.035Z,34.97
2018-12-07T11:54:58.975Z,35.06
2018-12-07T11:55:59.010Z,34.87
2018-12-07T11:57:51.963Z,35.26
2018-12-07T11:58:51.984Z,35.36
2018-12-07T12:00:44.929Z,35.55
2018-12-07T12:01:45.162Z,35.26
2018-12-07T12:03:37.910Z,35.45
2018-12-07T12:04:37.933Z,35.55
2018-12-07T12:06:30.878Z,35.63
2018-12-07T12:07:32.728Z,35.92
2018-12-07T12:09:23.858Z,35.92
2018-12-07T12:10:23.881Z,35.92
2018-12-07T12:12:16.837Z,35.92
2018-12-07T12:13:16.858Z,35.94
2018-12-07T12:15:09.803Z,35.92
2018-12-07T12:16:09.833Z,36.21
2018-12-07T12:18:02.796Z,36.13
2018-12-07T12:19:02.809Z,36.03
2018-12-07T12:20:55.758Z,35.92
2018-12-07T12:21:55.789Z,36.13
2018-12-07T12:23:53.651Z,35.64
2018-12-07T12:24:48.767Z,35.84
2018-12-07T12:26:41.717Z,35.84
2018-12-07T12:27:41.745Z,36.32
2018-12-07T12:29:34.709Z,36.22
2018-12-07T12:30:34.725Z,36.22
2018-12-07T12:32:27.688Z,36.42
2018-12-07T12:33:27.710Z,36.21
2018-12-07T12:35:21.518Z,36.03
2018-12-07T12:36:20.696Z,36.03
2018-12-07T12:38:13.648Z,36.03
2018-12-07T12:39:13.674Z,35.94
2018-12-07T12:41:06.619Z,36.22
2018-12-07T12:42:06.655Z,36.13
2018-12-07T12:43:59.623Z,36.80
2018-12-07T12:44:59.644Z,36.61
2018-12-07T12:46:52.598Z,36.42
2018-12-07T12:47:52.630Z,36.03
2018-12-07T12:49:45.594Z,36.13
2018-12-07T12:50:45.604Z,36.13
2018-12-07T12:52:38.562Z,36.03
2018-12-07T12:53:38.580Z,36.13
2018-12-07T12:55:31.528Z,36.22
2018-12-07T12:56:31.570Z,36.03
2018-12-07T12:58:24.514Z,36.13
2018-12-07T12:59:24.542Z,36.13
2018-12-07T13:01:17.476Z,36.13
2018-12-07T13:02:17.506Z,35.94
2018-12-07T13:04:10.464Z,36.13
2018-12-07T13:05:10.484Z,35.84
2018-12-07T13:07:03.469Z,36.30
2018-12-07T13:08:03.462Z,36.01
2018-12-07T13:09:56.418Z,36.03
2018-12-07T13:10:56.443Z,36.01
2018-12-07T13:12:49.388Z,36.21
2018-12-07T13:13:49.415Z,35.82
2018-12-07T13:15:42.357Z,36.11
2018-12-07T13:16:42.388Z,36.22
2018-12-07T13:18:35.339Z,36.40
2018-12-07T13:19:35.368Z,36.03
2018-12-07T13:21:28.308Z,36.42
2018-12-07T13:22:28.343Z,35.82
2018-12-07T13:24:21.294Z,35.92
2018-12-07T13:25:21.317Z,36.30
2018-12-07T13:27:14.266Z,36.52
2018-12-07T13:28:14.291Z,35.92
2018-12-07T13:30:07.243Z,36.11
2018-12-07T13:31:07.263Z,36.22
2018-12-07T13:33:00.215Z,36.21
2018-12-07T13:34:00.240Z,35.94
2018-12-07T13:35:53.187Z,36.03
2018-12-07T13:36:53.215Z,36.11
2018-12-07T13:38:46.167Z,36.21
2018-12-07T13:39:46.241Z,36.21
2018-12-07T13:41:39.281Z,36.03
2018-12-07T13:42:39.194Z,36.01
2018-12-07T13:44:32.117Z,36.11
2018-12-07T13:45:32.325Z,36.03
2018-12-07T13:47:25.257Z,36.22
2018-12-07T13:48:25.240Z,36.01
2018-12-07T13:50:18.081Z,35.94
2018-12-07T13:51:18.244Z,36.03
2018-12-07T13:53:11.050Z,35.82
2018-12-07T13:54:11.064Z,36.13
2018-12-07T13:56:04.108Z,36.11
2018-12-07T13:57:04.116Z,36.03
2018-12-07T13:58:57.055Z,35.84
2018-12-07T13:59:57.084Z,35.92
2018-12-07T14:01:50.019Z,35.94
2018-12-07T14:02:50.000Z,35.72
2018-12-07T14:04:42.944Z,36.03
2018-12-07T14:05:43.087Z,36.01
2018-12-07T14:07:35.945Z,36.11
2018-12-07T14:08:35.964Z,36.30
2018-12-07T14:10:28.967Z,36.21
2018-12-07T14:11:29.059Z,36.01
2018-12-07T14:13:21.882Z,36.59
2018-12-07T14:14:21.928Z,36.59
2018-12-07T14:16:14.837Z,36.21
2018-12-07T14:17:14.972Z,36.30
2018-12-07T14:19:08.019Z,36.79
2018-12-07T14:20:07.860Z,36.79
2018-12-07T14:22:00.795Z,36.88
2018-12-07T14:23:00.964Z,36.40
2018-12-07T14:24:53.922Z,36.59
2018-12-07T14:25:53.916Z,36.59
2018-12-07T14:27:46.765Z,36.69
2018-12-07T14:28:46.911Z,36.69
2018-12-07T14:30:39.911Z,36.11
2018-12-07T14:31:39.791Z,36.11
2018-12-07T14:33:32.707Z,36.21
2018-12-07T14:34:32.740Z,36.21
2018-12-07T14:36:25.700Z,36.01
2018-12-07T14:37:25.738Z,36.32
2018-12-07T14:39:18.666Z,35.92
2018-12-07T14:40:18.720Z,36.01
2018-12-07T14:42:11.705Z,36.11
2018-12-07T14:43:11.687Z,36.21
2018-12-07T14:45:04.798Z,35.92
2018-12-07T14:46:04.666Z,36.11
2018-12-07T14:47:57.657Z,36.01
2018-12-07T14:48:57.629Z,36.11
2018-12-07T14:50:50.671Z,35.72
2018-12-07T14:51:50.639Z,36.21
2018-12-07T14:53:43.554Z,35.82
2018-12-07T14:54:43.742Z,36.01
2018-12-07T14:56:36.522Z,36.11
2018-12-07T14:57:36.555Z,35.92
2018-12-07T14:59:29.644Z,36.01
2018-12-07T15:00:29.612Z,35.72
2018-12-07T15:02:22.548Z,35.92
2018-12-07T15:03:22.478Z,36.21
2018-12-07T15:05:15.524Z,36.29
2018-12-07T15:06:15.479Z,36.50
2018-12-07T15:08:08.558Z,36.01
2018-12-07T15:09:08.448Z,36.03
2018-12-07T15:11:01.587Z,35.74
2018-12-07T15:12:01.484Z,35.84
2018-12-07T15:13:54.584Z,35.84
2018-12-07T15:14:54.404Z,35.55
2018-12-07T15:16:47.424Z,35.26
2018-12-07T15:17:47.552Z,35.45
2018-12-07T15:19:40.562Z,35.55
2018-12-07T15:20:40.351Z,35.16
2018-12-07T15:22:33.312Z,35.26
2018-12-07T15:23:33.586Z,35.36
2018-12-07T15:25:26.462Z,35.16
2018-12-07T15:26:26.321Z,35.55
2018-12-07T15:28:19.271Z,35.26
2018-12-07T15:29:19.331Z,35.06
2018-12-07T15:31:12.293Z,35.06
2018-12-07T15:32:12.339Z,35.16
2018-12-07T15:34:05.234Z,35.06
2018-12-07T15:35:05.432Z,35.26
2018-12-07T15:36:58.395Z,35.26
2018-12-07T15:37:58.248Z,35.26
2018-12-07T15:39:51.218Z,35.16
2018-12-07T15:40:51.221Z,35.16
2018-12-07T15:42:44.389Z,35.26
2018-12-07T15:43:44.216Z,35.16
2018-12-07T15:45:37.311Z,35.45
2018-12-07T15:46:37.355Z,34.97
2018-12-07T15:48:30.088Z,35.26
2018-12-07T15:49:30.283Z,35.36
2018-12-07T15:51:23.086Z,35.55
2018-12-07T15:52:23.294Z,35.45
2018-12-07T15:54:16.035Z,35.26
2018-12-07T15:55:16.121Z,35.16
2018-12-07T15:57:09.055Z,35.16
2018-12-07T15:58:09.094Z,35.06
2018-12-07T16:00:02.280Z,35.06
2018-12-07T16:01:02.173Z,35.45
2018-12-07T16:02:55.161Z,35.26
2018-12-07T16:03:55.005Z,35.37
2018-12-07T16:05:47.985Z,35.08
2018-12-07T16:06:48.021Z,35.45
2018-12-07T16:08:41.220Z,35.36
2018-12-07T16:09:40.986Z,34.97
2018-12-07T16:11:34.131Z,35.84
2018-12-07T16:12:34.153Z,35.84
2018-12-07T16:14:27.149Z,35.55
2018-12-07T16:15:26.939Z,35.16
2018-12-07T16:17:19.973Z,35.84
2018-12-07T16:18:19.895Z,35.55
2018-12-07T16:20:12.822Z,35.36
2018-12-07T16:21:13.089Z,35.26
2018-12-07T16:23:05.827Z,35.08
2018-12-07T16:24:05.843Z,35.08
2018-12-07T16:25:58.835Z,35.18
2018-12-07T16:26:58.797Z,35.55
2018-12-07T16:28:51.807Z,35.37
2018-12-07T16:29:51.905Z,35.37
2018-12-07T16:31:44.798Z,35.28
2018-12-07T16:32:44.983Z,35.37
2018-12-07T16:34:37.730Z,35.18
2018-12-07T16:35:37.760Z,35.18
2018-12-07T16:37:30.775Z,35.28
2018-12-07T16:38:30.755Z,35.16
2018-12-07T16:40:23.794Z,35.37
2018-12-07T16:41:23.795Z,35.28
2018-12-07T16:43:16.722Z,35.37
2018-12-07T16:44:16.688Z,35.47
2018-12-07T16:46:09.631Z,35.28
2018-12-07T16:47:09.719Z,35.76
2018-12-07T16:49:02.606Z,35.86
2018-12-07T16:50:02.892Z,35.37
2018-12-07T16:51:55.594Z,35.37
2018-12-07T16:52:55.668Z,35.28
2018-12-07T16:54:49.086Z,35.66
2018-12-07T16:55:49.281Z,35.76
2018-12-07T16:57:42.004Z,35.57
2018-12-07T16:58:42.265Z,35.74
2018-12-07T17:00:35.533Z,36.15
2018-12-07T17:01:35.715Z,36.15
2018-12-07T17:03:28.680Z,35.76
2018-12-07T17:04:28.474Z,35.57
2018-12-07T17:06:22.203Z,36.24
2018-12-07T17:07:22.015Z,35.95
2018-12-07T17:09:14.919Z,35.95
2018-12-07T17:10:15.887Z,35.86
2018-12-07T17:12:08.389Z,35.95
2018-12-07T17:13:08.632Z,36.42
2018-12-07T17:15:01.842Z,35.76
2018-12-07T17:16:01.945Z,36.05
2018-12-07T17:17:55.547Z,35.84
2018-12-07T17:18:55.447Z,36.05
2018-12-07T17:20:48.302Z,35.86
2018-12-07T17:21:48.552Z,36.03
2018-12-07T17:23:41.902Z,35.95
2018-12-07T17:24:41.902Z,35.95
2018-12-07T17:26:34.907Z,35.95
2018-12-07T17:27:34.772Z,36.34
2018-12-07T17:29:27.903Z,35.95
2018-12-07T17:30:27.769Z,36.34
2018-12-07T17:32:20.877Z,36.05
2018-12-07T17:33:20.867Z,35.86
2018-12-07T17:35:13.900Z,36.15
2018-12-07T17:36:13.985Z,36.05
2018-12-07T17:38:07.245Z,36.15
2018-12-07T17:39:07.435Z,35.95
2018-12-07T17:41:00.137Z,36.26
2018-12-07T17:42:00.152Z,35.88
2018-12-07T17:43:53.314Z,36.15
2018-12-07T17:44:53.188Z,35.86
2018-12-07T17:46:46.152Z,36.15
2018-12-07T17:47:46.118Z,36.05
2018-12-07T17:49:39.078Z,35.86
2018-12-07T17:50:39.319Z,36.15
2018-12-07T17:52:32.135Z,35.76
2018-12-07T17:53:32.089Z,36.05
2018-12-07T17:55:25.324Z,35.95
2018-12-07T17:56:25.176Z,35.86
2018-12-07T17:58:18.202Z,36.34
2018-12-07T17:59:18.171Z,36.24
2018-12-07T18:01:11.011Z,36.24
2018-12-07T18:02:11.034Z,35.84
2018-12-07T18:04:03.979Z,35.66
2018-12-07T18:05:04.012Z,35.86
2018-12-07T18:06:56.993Z,36.05
2018-12-07T18:07:57.208Z,36.15
2018-12-07T18:09:50.056Z,36.05
2018-12-07T18:10:50.136Z,35.95
2018-12-07T18:12:42.988Z,36.03
2018-12-07T18:13:43.005Z,36.03
2018-12-07T18:15:35.917Z,35.86
2018-12-07T18:16:36.139Z,35.86
2018-12-07T18:18:29.074Z,35.95
2018-12-07T18:19:28.912Z,36.05
2018-12-07T18:21:22.402Z,36.05
2018-12-07T18:22:22.394Z,35.94
2018-12-07T18:24:15.527Z,35.86
2018-12-07T18:25:15.437Z,35.66
2018-12-07T18:27:08.394Z,35.66
2018-12-07T18:28:08.346Z,35.66
2018-12-07T18:30:01.259Z,35.64
2018-12-07T18:31:01.327Z,35.57
2018-12-07T18:32:54.295Z,35.86
2018-12-07T18:33:54.260Z,35.47